createdAt,value
2022-10-22T04:01:13.719Z,100360.00
2022-10-22T04:03:42.427Z,100365.00
2022-10-22T04:06:13.383Z,100354.00
2022-10-22T04:08:43.922Z,100369.00
2022-10-22T04:11:14.153Z,100377.00
2022-10-22T04:13:50.619Z,100381.00
2022-10-22T04:16:25.129Z,100388.00
2022-10-22T04:18:55.511Z,100385.00
2022-10-22T04:21:23.929Z,100393.00
2022-10-22T04:23:53.955Z,100401.00
2022-10-22T04:26:22.760Z,100391.00
2022-10-22T04:28:54.185Z,100390.00
2022-10-22T04:31:26.258Z,100396.00
2022-10-22T04:33:55.854Z,100374.00
2022-10-22T04:36:25.148Z,100386.00
2022-10-22T04:38:57.230Z,100391.00
2022-10-22T04:41:28.927Z,100377.00
2022-10-22T04:43:58.027Z,100377.00
2022-10-22T04:46:31.966Z,100385.00
2022-10-22T04:49:00.185Z,100360.00
2022-10-22T04:51:28.884Z,100385.00
2022-10-22T04:53:57.078Z,100383.00
2022-10-22T04:56:28.297Z,100393.00
2022-10-22T04:58:59.016Z,100397.00
2022-10-22T05:01:31.050Z,100387.00
2022-10-22T05:04:02.482Z,100388.00
2022-10-22T05:06:33.181Z,100382.00
2022-10-22T05:09:05.885Z,100391.00
2022-10-22T05:11:36.696Z,100385.00
2022-10-22T05:14:07.770Z,100377.00
2022-10-22T05:16:38.232Z,100391.00
2022-10-22T05:19:07.592Z,100383.00
2022-10-22T05:21:36.642Z,100382.00
2022-10-22T05:24:04.927Z,100393.00
2022-10-22T05:26:32.905Z,100406.00
2022-10-22T05:29:00.893Z,100400.00
2022-10-22T05:31:29.407Z,100396.00
2022-10-22T05:33:58.740Z,100394.00
2022-10-22T05:36:28.382Z,100383.00
2022-10-22T05:38:56.348Z,100388.00
2022-10-22T05:41:28.320Z,100381.00
2022-10-22T05:43:57.114Z,100386.00
2022-10-22T05:46:28.366Z,100390.00
2022-10-22T05:49:00.704Z,100400.00
2022-10-22T05:51:31.981Z,100404.00
2022-10-22T05:54:02.736Z,100407.00
2022-10-22T05:56:33.448Z,100412.00
2022-10-22T06:01:36.314Z,100418.00
2022-10-22T06:04:08.660Z,100427.00
2022-10-22T06:06:39.856Z,100420.00
2022-10-22T06:09:17.067Z,100419.00
2022-10-22T06:11:45.835Z,100412.00
2022-10-22T06:14:14.507Z,100405.00
2022-10-22T06:16:43.236Z,100419.00
2022-10-22T06:19:14.563Z,100415.00
2022-10-22T06:21:43.304Z,100425.00
2022-10-22T06:24:12.598Z,100419.00
2022-10-22T06:26:41.893Z,100417.00
2022-10-22T06:29:10.454Z,100429.00
2022-10-22T06:31:38.527Z,100436.00
2022-10-22T06:34:08.362Z,100446.00
2022-10-22T06:36:37.769Z,100456.00
2022-10-22T06:39:06.636Z,100459.00
2022-10-22T06:41:34.687Z,100466.00
2022-10-22T06:44:02.731Z,100460.00
2022-10-22T06:46:31.776Z,100470.00
2022-10-22T06:49:02.887Z,100463.00
2022-10-22T06:51:31.123Z,100465.00
2022-10-22T06:54:00.546Z,100459.00
2022-10-22T06:56:30.147Z,100480.00
2022-10-22T06:58:59.650Z,100475.00
2022-10-22T07:01:31.127Z,100471.00
2022-10-22T07:03:59.962Z,100473.00
2022-10-22T07:06:30.637Z,100466.00
2022-10-22T07:09:01.312Z,100459.00
2022-10-22T07:11:33.044Z,100472.00
2022-10-22T07:14:01.976Z,100470.00
2022-10-22T07:16:32.549Z,100477.00
2022-10-22T07:19:01.239Z,100476.00
2022-10-22T07:21:29.923Z,100484.00
2022-10-22T07:24:00.044Z,100477.00
2022-10-22T07:26:30.971Z,100475.00
2022-10-22T07:28:59.695Z,100482.00
2022-10-22T07:31:28.878Z,100490.00
2022-10-22T07:33:57.413Z,100495.00
2022-10-22T07:36:25.489Z,100482.00
2022-10-22T07:38:57.537Z,100496.00
2022-10-22T07:41:28.091Z,100506.00
2022-10-22T07:43:56.299Z,100492.00
2022-10-22T07:46:25.600Z,100505.00
2022-10-22T07:48:54.164Z,100516.00
2022-10-22T07:51:22.371Z,100511.00
2022-10-22T07:53:50.409Z,100520.00
2022-10-22T07:56:18.467Z,100517.00
2022-10-22T07:58:47.905Z,100533.00
2022-10-22T08:01:16.059Z,100535.00
2022-10-22T08:03:44.143Z,100526.00
2022-10-22T08:06:15.624Z,100522.00
2022-10-22T08:08:45.714Z,100533.00
2022-10-22T08:11:14.211Z,100535.00
2022-10-22T08:13:45.411Z,100540.00
2022-10-22T08:16:15.568Z,100539.00
2022-10-22T08:18:43.917Z,100545.00
2022-10-22T08:21:12.133Z,100530.00
2022-10-22T08:23:40.625Z,100545.00
2022-10-22T08:26:08.638Z,100538.00
2022-10-22T08:28:37.173Z,100540.00
2022-10-22T08:31:07.316Z,100540.00
2022-10-22T08:33:38.670Z,100550.00
2022-10-22T08:36:07.869Z,100553.00
2022-10-22T08:38:36.216Z,100555.00
2022-10-22T08:41:13.008Z,100554.00
2022-10-22T08:44:22.185Z,100568.00
2022-10-22T08:47:22.603Z,100571.00
2022-10-22T08:49:54.728Z,100567.00
2022-10-22T08:52:23.879Z,100569.00
2022-10-22T08:54:55.476Z,100566.00
2022-10-22T08:57:52.488Z,100565.00
2022-10-22T09:00:30.261Z,100577.00
2022-10-22T09:03:26.911Z,100575.00
2022-10-22T09:06:06.300Z,100573.00
2022-10-22T09:08:35.978Z,100576.00
2022-10-22T09:11:17.611Z,100566.00
2022-10-22T09:13:47.924Z,100565.00
2022-10-22T09:16:21.109Z,100577.00
2022-10-22T09:19:06.910Z,100582.00
2022-10-22T09:21:49.964Z,100579.00
2022-10-22T09:24:37.672Z,100596.00
2022-10-22T09:27:14.651Z,100567.00
2022-10-22T09:29:43.703Z,100591.00
2022-10-22T09:32:12.091Z,100597.00
2022-10-22T09:34:40.795Z,100593.00
2022-10-22T09:37:11.962Z,100600.00
2022-10-22T09:39:44.655Z,100593.00
2022-10-22T09:42:17.135Z,100595.00
2022-10-22T09:44:47.767Z,100607.00
2022-10-22T09:47:42.715Z,100617.00
2022-10-22T09:50:28.310Z,100613.00
2022-10-22T09:53:05.217Z,100623.00
2022-10-22T09:55:33.619Z,100616.00
2022-10-22T09:58:04.895Z,100612.00
2022-10-22T10:00:32.889Z,100621.00
2022-10-22T10:03:01.606Z,100624.00
2022-10-22T10:05:34.653Z,100619.00
2022-10-22T10:08:15.135Z,100610.00
2022-10-22T10:10:48.967Z,100609.00
2022-10-22T10:13:43.171Z,100615.00
2022-10-22T10:16:27.573Z,100621.00
2022-10-22T10:19:25.739Z,100627.00
2022-10-22T10:22:15.183Z,100616.00
2022-10-22T10:25:11.114Z,100586.00
2022-10-22T10:27:44.426Z,100632.00
2022-10-22T10:30:19.715Z,100629.00
2022-10-22T10:33:10.688Z,100624.00
2022-10-22T10:35:50.347Z,100626.00
2022-10-22T10:38:36.972Z,100626.00
2022-10-22T10:41:19.770Z,100617.00
2022-10-22T10:44:16.951Z,100625.00
2022-10-22T10:46:56.166Z,100622.00
2022-10-22T10:49:28.393Z,100616.00
2022-10-22T10:52:08.429Z,100624.00
2022-10-22T10:54:52.503Z,100614.00
2022-10-22T10:57:40.941Z,100624.00
2022-10-22T11:00:15.004Z,100617.00
2022-10-22T11:03:17.378Z,100624.00
2022-10-22T11:05:51.320Z,100630.00
2022-10-22T11:08:25.771Z,100628.00
2022-10-22T11:11:01.982Z,100632.00
2022-10-22T11:13:37.449Z,100639.00
2022-10-22T11:16:15.229Z,100642.00
2022-10-22T11:18:49.242Z,100638.00
2022-10-22T11:21:27.972Z,100634.00
2022-10-22T11:24:04.906Z,100631.00
2022-10-22T11:26:42.825Z,100630.00
2022-10-22T11:29:20.375Z,100628.00
2022-10-22T11:31:50.237Z,100622.00
2022-10-22T11:34:38.911Z,100626.00
2022-10-22T11:37:07.762Z,100630.00
2022-10-22T11:39:43.880Z,100631.00
2022-10-22T11:42:20.478Z,100632.00
2022-10-22T11:45:01.154Z,100632.00
2022-10-22T11:47:33.999Z,100633.00
2022-10-22T11:50:22.765Z,100626.00
2022-10-22T11:53:04.867Z,100636.00
2022-10-22T11:55:47.931Z,100630.00
2022-10-22T11:58:42.263Z,100635.00
2022-10-22T12:01:43.827Z,100641.00
2022-10-22T12:04:23.901Z,100646.00
2022-10-22T12:07:01.902Z,100650.00
2022-10-22T12:09:34.259Z,100644.00
2022-10-22T12:12:15.661Z,100638.00
2022-10-22T12:14:57.713Z,100644.00
2022-10-22T12:17:29.670Z,100653.00
2022-10-22T12:20:08.117Z,100653.00
2022-10-22T12:22:38.563Z,100655.00
2022-10-22T12:25:19.961Z,100661.00
2022-10-22T12:27:54.877Z,100655.00
2022-10-22T12:30:26.320Z,100662.00
2022-10-22T12:33:00.609Z,100669.00
2022-10-22T12:35:31.283Z,100669.00
2022-10-22T12:38:03.234Z,100669.00
2022-10-22T12:40:35.670Z,100673.00
2022-10-22T12:43:13.288Z,100674.00
2022-10-22T12:45:44.437Z,100660.00
2022-10-22T12:48:20.433Z,100667.00
2022-10-22T12:50:52.647Z,100673.00
2022-10-22T12:53:27.127Z,100670.00
2022-10-22T12:55:58.546Z,100670.00
2022-10-22T12:58:33.308Z,100679.00
2022-10-22T13:01:02.468Z,100674.00
2022-10-22T13:03:38.487Z,100671.00
2022-10-22T13:06:26.320Z,100672.00
2022-10-22T13:09:08.190Z,100680.00
2022-10-22T13:11:41.401Z,100680.00
2022-10-22T13:14:27.900Z,100659.00
2022-10-22T13:17:12.718Z,100689.00
2022-10-22T13:19:47.556Z,100679.00
2022-10-22T13:22:33.128Z,100690.00
2022-10-22T13:25:20.855Z,100693.00
2022-10-22T13:27:52.707Z,100683.00
2022-10-22T13:30:24.171Z,100694.00
2022-10-22T13:32:57.857Z,100689.00
2022-10-22T13:35:32.040Z,100688.00
2022-10-22T13:38:00.537Z,100691.00
2022-10-22T13:40:29.372Z,100693.00
2022-10-22T13:42:57.338Z,100686.00
2022-10-22T13:45:25.312Z,100693.00
2022-10-22T13:47:55.766Z,100695.00
2022-10-22T13:50:23.727Z,100700.00
2022-10-22T13:52:56.027Z,100703.00
2022-10-22T13:55:26.885Z,100703.00
2022-10-22T13:57:58.325Z,100711.00
2022-10-22T14:00:26.820Z,100704.00
2022-10-22T14:02:58.905Z,100698.00
2022-10-22T14:05:27.384Z,100713.00
2022-10-22T14:07:57.896Z,100706.00
2022-10-22T14:10:26.548Z,100715.00
2022-10-22T14:12:54.864Z,100718.00
2022-10-22T14:15:25.013Z,100709.00
2022-10-22T14:17:59.060Z,100717.00
2022-10-22T14:20:31.747Z,100716.00
2022-10-22T14:23:14.342Z,100716.00
2022-10-22T14:25:43.092Z,100722.00
2022-10-22T14:28:12.701Z,100723.00
2022-10-22T14:30:42.243Z,100715.00
2022-10-22T14:33:16.196Z,100723.00
2022-10-22T14:35:44.508Z,100705.00
2022-10-22T14:38:13.834Z,100729.00
2022-10-22T14:40:42.933Z,100730.00
2022-10-22T14:43:21.100Z,100700.00
2022-10-22T14:45:49.535Z,100728.00
2022-10-22T14:50:50.946Z,100722.00
2022-10-22T14:53:20.261Z,100730.00
2022-10-22T14:55:49.171Z,100722.00
2022-10-22T14:58:17.376Z,100723.00
2022-10-22T15:00:45.478Z,100723.00
2022-10-22T15:03:13.483Z,100719.00
2022-10-22T15:05:44.216Z,100719.00
2022-10-22T15:08:14.629Z,100724.00
2022-10-22T15:10:44.151Z,100728.00
2022-10-22T15:13:12.235Z,100726.00
2022-10-22T15:15:41.565Z,100712.00
2022-10-22T15:18:09.644Z,100729.00
2022-10-22T15:20:37.652Z,100731.00
2022-10-22T15:23:05.726Z,100730.00
2022-10-22T15:25:34.052Z,100733.00
2022-10-22T15:28:09.601Z,100741.00
2022-10-22T15:30:38.216Z,100739.00
2022-10-22T15:33:06.743Z,100737.00
2022-10-22T15:35:34.828Z,100731.00
2022-10-22T15:38:02.786Z,100729.00
2022-10-22T15:40:30.761Z,100735.00
2022-10-22T15:42:58.851Z,100742.00
2022-10-22T15:45:28.296Z,100736.00
2022-10-22T15:47:56.314Z,100740.00
2022-10-22T15:50:24.302Z,100740.00
2022-10-22T15:52:52.317Z,100740.00
2022-10-22T15:55:20.353Z,100747.00
2022-10-22T15:57:54.600Z,100737.00
2022-10-22T16:00:24.961Z,100738.00
2022-10-22T16:02:55.134Z,100744.00
2022-10-22T16:05:23.478Z,100739.00
2022-10-22T16:07:55.603Z,100742.00
2022-10-22T16:10:24.394Z,100738.00
2022-10-22T16:12:54.458Z,100742.00
2022-10-22T16:15:22.526Z,100739.00
2022-10-22T16:17:53.981Z,100749.00
2022-10-22T16:20:21.977Z,100733.00
2022-10-22T16:22:51.357Z,100745.00
2022-10-22T16:25:19.350Z,100751.00
2022-10-22T16:27:51.368Z,100758.00
2022-10-22T16:30:19.766Z,100755.00
2022-10-22T16:32:47.810Z,100764.00
2022-10-22T16:35:17.359Z,100760.00
2022-10-22T16:37:45.333Z,100757.00
2022-10-22T16:40:14.172Z,100756.00
2022-10-22T16:42:43.999Z,100760.00
2022-10-22T16:45:12.189Z,100755.00
2022-10-22T16:47:43.019Z,100772.00
2022-10-22T16:50:11.595Z,100760.00
2022-10-22T16:52:41.163Z,100774.00
2022-10-22T16:55:10.336Z,100768.00
2022-10-22T16:57:38.514Z,100776.00
2022-10-22T17:00:08.831Z,100779.00
2022-10-22T17:02:37.374Z,100781.00
2022-10-22T17:05:06.345Z,100778.00
2022-10-22T17:07:34.355Z,100785.00
2022-10-22T17:10:05.153Z,100791.00
2022-10-22T17:12:35.356Z,100790.00
2022-10-22T17:15:04.218Z,100797.00
2022-10-22T17:17:32.257Z,100795.00
2022-10-22T17:20:00.728Z,100796.00
2022-10-22T17:22:28.789Z,100802.00
2022-10-22T17:25:13.898Z,100808.00
2022-10-22T17:27:43.516Z,100810.00
2022-10-22T17:30:17.432Z,100799.00
2022-10-22T17:32:46.110Z,100807.00
2022-10-22T17:35:17.177Z,100813.00
2022-10-22T17:37:45.337Z,100806.00
2022-10-22T17:40:16.546Z,100824.00
2022-10-22T17:42:45.407Z,100824.00
2022-10-22T17:45:13.544Z,100812.00
2022-10-22T17:47:41.690Z,100825.00
2022-10-22T17:50:11.394Z,100819.00
2022-10-22T17:52:39.544Z,100827.00
2022-10-22T17:55:08.984Z,100825.00
2022-10-22T17:57:38.270Z,100827.00
2022-10-22T18:00:08.260Z,100829.00
2022-10-22T18:02:36.350Z,100823.00
2022-10-22T18:05:04.615Z,100827.00
2022-10-22T18:07:32.644Z,100829.00
2022-10-22T18:10:00.702Z,100827.00
2022-10-22T18:12:28.650Z,100829.00
2022-10-22T18:14:57.984Z,100833.00
2022-10-22T18:17:27.458Z,100826.00
2022-10-22T18:19:55.457Z,100826.00
2022-10-22T18:22:23.459Z,100828.00
2022-10-22T18:24:52.952Z,100828.00
2022-10-22T18:27:20.936Z,100814.00
2022-10-22T18:29:50.887Z,100844.00
2022-10-22T18:32:20.235Z,100828.00
2022-10-22T18:34:48.215Z,100844.00
2022-10-22T18:37:16.504Z,100834.00
2022-10-22T18:39:44.911Z,100843.00
2022-10-22T18:42:13.003Z,100818.00
2022-10-22T18:44:40.943Z,100839.00
2022-10-22T18:47:08.976Z,100845.00
2022-10-22T18:49:38.823Z,100838.00
2022-10-22T18:52:07.006Z,100828.00
2022-10-22T18:54:35.893Z,100844.00
2022-10-22T18:57:03.844Z,100834.00
2022-10-22T18:59:32.322Z,100837.00
2022-10-22T19:02:00.502Z,100834.00
2022-10-22T19:04:33.556Z,100839.00
2022-10-22T19:07:03.516Z,100843.00
2022-10-22T19:09:31.876Z,100837.00
2022-10-22T19:12:00.132Z,100835.00
2022-10-22T19:14:28.376Z,100847.00
2022-10-22T19:16:56.422Z,100845.00
2022-10-22T19:19:24.809Z,100846.00
2022-10-22T19:21:53.184Z,100849.00
2022-10-22T19:24:22.585Z,100854.00
2022-10-22T19:26:52.548Z,100845.00
2022-10-22T19:29:22.387Z,100864.00
2022-10-22T19:31:51.655Z,100854.00
2022-10-22T19:34:20.711Z,100858.00
2022-10-22T19:36:51.488Z,100852.00
2022-10-22T19:39:20.152Z,100867.00
2022-10-22T19:41:49.548Z,100870.00
2022-10-22T19:44:17.813Z,100854.00
2022-10-22T19:46:45.791Z,100860.00
2022-10-22T19:49:17.606Z,100860.00
2022-10-22T19:51:48.687Z,100864.00
2022-10-22T19:54:18.730Z,100874.00
2022-10-22T19:56:49.632Z,100871.00
2022-10-22T19:59:20.400Z,100863.00
2022-10-22T20:01:48.405Z,100885.00
2022-10-22T20:04:18.965Z,100883.00
2022-10-22T20:06:47.689Z,100890.00
2022-10-22T20:09:15.859Z,100891.00
2022-10-22T20:11:44.197Z,100894.00
2022-10-22T20:14:15.190Z,100898.00
2022-10-22T20:16:43.707Z,100911.00
2022-10-22T20:19:15.949Z,100906.00
2022-10-22T20:21:45.267Z,100904.00
2022-10-22T20:24:13.618Z,100902.00
2022-10-22T20:26:41.748Z,100908.00
2022-10-22T20:29:11.488Z,100902.00
2022-10-22T20:31:41.162Z,100912.00
2022-10-22T20:34:10.262Z,100919.00
2022-10-22T20:36:38.277Z,100916.00
2022-10-22T20:39:11.325Z,100915.00
2022-10-22T20:41:40.508Z,100912.00
2022-10-22T20:44:13.931Z,100925.00
2022-10-22T20:46:44.027Z,100924.00
2022-10-22T20:49:15.412Z,100926.00
2022-10-22T20:51:44.205Z,100923.00
2022-10-22T20:54:12.653Z,100916.00
2022-10-22T20:56:41.935Z,100926.00
2022-10-22T20:59:12.265Z,100918.00
